sensor_id;sensor_type;location;lat;lon;timestamp;P1;durP1;ratioP1;P2;durP2;ratioP2
75272;SDS011;63869;52.344;16.928;2023-05-21T00:01:12;24.00;;;17.88;;
75272;SDS011;63869;52.344;16.928;2023-05-21T00:03:40;23.45;;;17.17;;
75272;SDS011;63869;52.344;16.928;2023-05-21T00:06:06;21.75;;;16.85;;
75272;SDS011;63869;52.344;16.928;2023-05-21T00:08:31;23.80;;;17.23;;
75272;SDS011;63869;52.344;16.928;2023-05-21T00:10:58;22.30;;;16.95;;
75272;SDS011;63869;52.344;16.928;2023-05-21T00:13:23;25.38;;;18.05;;
75272;SDS011;63869;52.344;16.928;2023-05-21T00:15:49;28.83;;;18.02;;
75272;SDS011;63869;52.344;16.928;2023-05-21T00:18:14;29.98;;;17.10;;
75272;SDS011;63869;52.344;16.928;2023-05-21T00:20:40;22.63;;;17.35;;
75272;SDS011;63869;52.344;16.928;2023-05-21T00:23:05;22.63;;;17.52;;
75272;SDS011;63869;52.344;16.928;2023-05-21T00:25:31;25.83;;;17.77;;
75272;SDS011;63869;52.344;16.928;2023-05-21T00:27:57;24.23;;;17.80;;
75272;SDS011;63869;52.344;16.928;2023-05-21T00:30:23;23.38;;;17.73;;
75272;SDS011;63869;52.344;16.928;2023-05-21T00:32:48;22.80;;;17.58;;
75272;SDS011;63869;52.344;16.928;2023-05-21T00:35:13;26.20;;;18.13;;
75272;SDS011;63869;52.344;16.928;2023-05-21T00:37:39;24.15;;;17.52;;
75272;SDS011;63869;52.344;16.928;2023-05-21T00:40:05;23.50;;;18.10;;
75272;SDS011;63869;52.344;16.928;2023-05-21T00:42:32;27.33;;;17.83;;
75272;SDS011;63869;52.344;16.928;2023-05-21T00:45:03;25.73;;;17.80;;
75272;SDS011;63869;52.344;16.928;2023-05-21T00:47:29;31.48;;;19.48;;
75272;SDS011;63869;52.344;16.928;2023-05-21T00:49:55;25.75;;;18.10;;
75272;SDS011;63869;52.344;16.928;2023-05-21T00:52:20;23.63;;;17.73;;
75272;SDS011;63869;52.344;16.928;2023-05-21T00:54:48;24.58;;;17.60;;
75272;SDS011;63869;52.344;16.928;2023-05-21T00:57:14;23.83;;;17.45;;
75272;SDS011;63869;52.344;16.928;2023-05-21T00:59:44;23.52;;;17.30;;
75272;SDS011;63869;52.344;16.928;2023-05-21T01:02:10;27.80;;;18.65;;
75272;SDS011;63869;52.344;16.928;2023-05-21T01:04:38;24.33;;;17.60;;
75272;SDS011;63869;52.344;16.928;2023-05-21T01:07:03;24.23;;;17.75;;
75272;SDS011;63869;52.344;16.928;2023-05-21T01:09:30;24.73;;;17.58;;
75272;SDS011;63869;52.344;16.928;2023-05-21T01:11:55;24.45;;;17.85;;
75272;SDS011;63869;52.344;16.928;2023-05-21T01:14:22;25.58;;;17.77;;
75272;SDS011;63869;52.344;16.928;2023-05-21T01:16:49;25.70;;;16.95;;
75272;SDS011;63869;52.344;16.928;2023-05-21T01:19:15;23.02;;;17.10;;
75272;SDS011;63869;52.344;16.928;2023-05-21T01:21:49;24.85;;;18.08;;
75272;SDS011;63869;52.344;16.928;2023-05-21T01:24:20;25.33;;;18.73;;
75272;SDS011;63869;52.344;16.928;2023-05-21T01:26:45;25.25;;;18.33;;
75272;SDS011;63869;52.344;16.928;2023-05-21T01:29:12;27.52;;;18.33;;
75272;SDS011;63869;52.344;16.928;2023-05-21T01:34:20;25.52;;;17.98;;
75272;SDS011;63869;52.344;16.928;2023-05-21T01:36:48;26.58;;;18.83;;
75272;SDS011;63869;52.344;16.928;2023-05-21T01:39:39;25.63;;;18.58;;
75272;SDS011;63869;52.344;16.928;2023-05-21T01:42:09;28.95;;;20.05;;
75272;SDS011;63869;52.344;16.928;2023-05-21T01:44:35;27.98;;;18.95;;
75272;SDS011;63869;52.344;16.928;2023-05-21T01:47:02;26.90;;;19.15;;
75272;SDS011;63869;52.344;16.928;2023-05-21T01:49:28;25.83;;;19.65;;
75272;SDS011;63869;52.344;16.928;2023-05-21T01:51:54;28.77;;;19.35;;
75272;SDS011;63869;52.344;16.928;2023-05-21T01:54:20;30.38;;;19.77;;
75272;SDS011;63869;52.344;16.928;2023-05-21T01:56:46;29.48;;;19.70;;
75272;SDS011;63869;52.344;16.928;2023-05-21T01:59:13;28.33;;;19.40;;
75272;SDS011;63869;52.344;16.928;2023-05-21T02:01:39;27.30;;;19.20;;
75272;SDS011;63869;52.344;16.928;2023-05-21T02:04:04;27.10;;;19.63;;
75272;SDS011;63869;52.344;16.928;2023-05-21T02:06:29;27.38;;;19.52;;
75272;SDS011;63869;52.344;16.928;2023-05-21T02:08:56;27.77;;;20.05;;
75272;SDS011;63869;52.344;16.928;2023-05-21T02:11:22;27.05;;;19.02;;
75272;SDS011;63869;52.344;16.928;2023-05-21T02:13:47;27.63;;;19.30;;
75272;SDS011;63869;52.344;16.928;2023-05-21T02:16:13;26.75;;;19.38;;
75272;SDS011;63869;52.344;16.928;2023-05-21T02:18:40;29.10;;;20.27;;
75272;SDS011;63869;52.344;16.928;2023-05-21T02:21:08;29.33;;;20.25;;
75272;SDS011;63869;52.344;16.928;2023-05-21T02:23:37;32.65;;;20.35;;
75272;SDS011;63869;52.344;16.928;2023-05-21T02:26:02;33.25;;;21.30;;
75272;SDS011;63869;52.344;16.928;2023-05-21T02:28:28;29.17;;;20.13;;
75272;SDS011;63869;52.344;16.928;2023-05-21T02:30:54;30.25;;;19.73;;
75272;SDS011;63869;52.344;16.928;2023-05-21T02:33:20;31.92;;;19.52;;
75272;SDS011;63869;52.344;16.928;2023-05-21T02:35:46;27.83;;;19.35;;
75272;SDS011;63869;52.344;16.928;2023-05-21T02:38:11;30.25;;;20.88;;
75272;SDS011;63869;52.344;16.928;2023-05-21T02:40:43;26.42;;;20.05;;
75272;SDS011;63869;52.344;16.928;2023-05-21T02:43:09;28.17;;;19.73;;
75272;SDS011;63869;52.344;16.928;2023-05-21T02:45:34;28.42;;;19.60;;
75272;SDS011;63869;52.344;16.928;2023-05-21T02:48:00;28.45;;;19.80;;
75272;SDS011;63869;52.344;16.928;2023-05-21T02:50:25;29.85;;;20.85;;
75272;SDS011;63869;52.344;16.928;2023-05-21T02:52:50;29.67;;;20.98;;
75272;SDS011;63869;52.344;16.928;2023-05-21T02:55:16;27.88;;;19.40;;
75272;SDS011;63869;52.344;16.928;2023-05-21T02:57:41;28.05;;;20.15;;
75272;SDS011;63869;52.344;16.928;2023-05-21T03:00:07;32.72;;;20.67;;
75272;SDS011;63869;52.344;16.928;2023-05-21T03:02:33;32.40;;;20.48;;
75272;SDS011;63869;52.344;16.928;2023-05-21T03:04:59;29.65;;;21.33;;
75272;SDS011;63869;52.344;16.928;2023-05-21T03:07:24;33.70;;;21.48;;
75272;SDS011;63869;52.344;16.928;2023-05-21T03:09:50;34.13;;;22.88;;
75272;SDS011;63869;52.344;16.928;2023-05-21T03:12:15;34.05;;;21.83;;
75272;SDS011;63869;52.344;16.928;2023-05-21T03:14:41;28.73;;;20.88;;
75272;SDS011;63869;52.344;16.928;2023-05-21T03:17:08;33.53;;;20.58;;
75272;SDS011;63869;52.344;16.928;2023-05-21T03:19:37;28.85;;;20.85;;
75272;SDS011;63869;52.344;16.928;2023-05-21T03:22:04;28.85;;;20.48;;
75272;SDS011;63869;52.344;16.928;2023-05-21T03:24:30;28.92;;;20.25;;
75272;SDS011;63869;52.344;16.928;2023-05-21T03:26:57;28.33;;;19.70;;
75272;SDS011;63869;52.344;16.928;2023-05-21T03:29:23;29.40;;;19.55;;
75272;SDS011;63869;52.344;16.928;2023-05-21T03:31:48;26.42;;;20.00;;
75272;SDS011;63869;52.344;16.928;2023-05-21T03:34:16;30.23;;;19.17;;
75272;SDS011;63869;52.344;16.928;2023-05-21T03:36:44;26.15;;;18.80;;
75272;SDS011;63869;52.344;16.928;2023-05-21T03:39:11;25.52;;;18.42;;
75272;SDS011;63869;52.344;16.928;2023-05-21T03:41:37;26.10;;;18.88;;
75272;SDS011;63869;52.344;16.928;2023-05-21T03:44:03;24.52;;;17.95;;
75272;SDS011;63869;52.344;16.928;2023-05-21T03:46:28;26.38;;;18.52;;
75272;SDS011;63869;52.344;16.928;2023-05-21T03:48:53;29.05;;;18.17;;
75272;SDS011;63869;52.344;16.928;2023-05-21T03:51:19;24.77;;;16.80;;
75272;SDS011;63869;52.344;16.928;2023-05-21T03:53:45;25.73;;;18.17;;
75272;SDS011;63869;52.344;16.928;2023-05-21T03:56:10;28.23;;;17.60;;
75272;SDS011;63869;52.344;16.928;2023-05-21T03:58:36;23.33;;;16.30;;
75272;SDS011;63869;52.344;16.928;2023-05-21T04:01:01;25.02;;;16.50;;
75272;SDS011;63869;52.344;16.928;2023-05-21T04:03:28;21.63;;;15.10;;
75272;SDS011;63869;52.344;16.928;2023-05-21T04:05:53;21.60;;;15.50;;
75272;SDS011;63869;52.344;16.928;2023-05-21T04:08:20;20.85;;;15.60;;
75272;SDS011;63869;52.344;16.928;2023-05-21T04:10:45;20.17;;;15.20;;
75272;SDS011;63869;52.344;16.928;2023-05-21T04:13:11;18.23;;;14.43;;
75272;SDS011;63869;52.344;16.928;2023-05-21T04:15:36;20.90;;;15.02;;
75272;SDS011;63869;52.344;16.928;2023-05-21T04:18:02;20.13;;;14.38;;
75272;SDS011;63869;52.344;16.928;2023-05-21T04:20:28;17.30;;;13.70;;
75272;SDS011;63869;52.344;16.928;2023-05-21T04:22:55;20.92;;;14.43;;
75272;SDS011;63869;52.344;16.928;2023-05-21T04:25:20;18.33;;;13.40;;
75272;SDS011;63869;52.344;16.928;2023-05-21T04:27:47;70.18;;;16.35;;
75272;SDS011;63869;52.344;16.928;2023-05-21T04:30:13;21.17;;;13.27;;
75272;SDS011;63869;52.344;16.928;2023-05-21T04:32:39;17.08;;;11.50;;
75272;SDS011;63869;52.344;16.928;2023-05-21T04:35:04;17.40;;;12.30;;
75272;SDS011;63869;52.344;16.928;2023-05-21T04:37:30;16.65;;;11.80;;
75272;SDS011;63869;52.344;16.928;2023-05-21T04:39:59;16.52;;;11.85;;
75272;SDS011;63869;52.344;16.928;2023-05-21T04:42:25;14.13;;;10.80;;
75272;SDS011;63869;52.344;16.928;2023-05-21T04:44:51;17.50;;;11.48;;
75272;SDS011;63869;52.344;16.928;2023-05-21T04:47:16;12.63;;;10.60;;
75272;SDS011;63869;52.344;16.928;2023-05-21T04:49:45;15.23;;;10.57;;
75272;SDS011;63869;52.344;16.928;2023-05-21T04:52:30;15.30;;;11.05;;
75272;SDS011;63869;52.344;16.928;2023-05-21T04:54:56;13.73;;;10.35;;
75272;SDS011;63869;52.344;16.928;2023-05-21T04:57:21;15.40;;;10.30;;
75272;SDS011;63869;52.344;16.928;2023-05-21T04:59:49;14.60;;;10.48;;
75272;SDS011;63869;52.344;16.928;2023-05-21T05:02:14;15.57;;;10.07;;
75272;SDS011;63869;52.344;16.928;2023-05-21T05:04:40;14.23;;;9.93;;
75272;SDS011;63869;52.344;16.928;2023-05-21T05:07:07;14.32;;;9.73;;
75272;SDS011;63869;52.344;16.928;2023-05-21T05:09:33;11.98;;;9.82;;
75272;SDS011;63869;52.344;16.928;2023-05-21T05:11:58;14.82;;;9.77;;
75272;SDS011;63869;52.344;16.928;2023-05-21T05:14:23;12.27;;;9.00;;
75272;SDS011;63869;52.344;16.928;2023-05-21T05:16:49;15.43;;;10.20;;
75272;SDS011;63869;52.344;16.928;2023-05-21T05:19:14;11.82;;;8.90;;
75272;SDS011;63869;52.344;16.928;2023-05-21T05:21:39;12.15;;;8.55;;
75272;SDS011;63869;52.344;16.928;2023-05-21T05:24:05;11.32;;;8.52;;
75272;SDS011;63869;52.344;16.928;2023-05-21T05:26:30;13.32;;;8.85;;
75272;SDS011;63869;52.344;16.928;2023-05-21T05:28:55;11.63;;;8.82;;
75272;SDS011;63869;52.344;16.928;2023-05-21T05:31:21;11.90;;;8.40;;
75272;SDS011;63869;52.344;16.928;2023-05-21T05:33:46;11.82;;;8.63;;
75272;SDS011;63869;52.344;16.928;2023-05-21T05:36:12;11.88;;;8.57;;
75272;SDS011;63869;52.344;16.928;2023-05-21T05:38:37;12.23;;;8.52;;
75272;SDS011;63869;52.344;16.928;2023-05-21T05:41:02;10.93;;;8.50;;
75272;SDS011;63869;52.344;16.928;2023-05-21T05:43:28;16.13;;;10.65;;
75272;SDS011;63869;52.344;16.928;2023-05-21T05:45:53;15.88;;;11.25;;
75272;SDS011;63869;52.344;16.928;2023-05-21T05:48:20;13.38;;;9.80;;
75272;SDS011;63869;52.344;16.928;2023-05-21T05:50:46;9.23;;;8.10;;
75272;SDS011;63869;52.344;16.928;2023-05-21T05:53:12;12.75;;;9.05;;
75272;SDS011;63869;52.344;16.928;2023-05-21T05:55:40;13.40;;;8.23;;
75272;SDS011;63869;52.344;16.928;2023-05-21T05:58:06;14.18;;;8.75;;
75272;SDS011;63869;52.344;16.928;2023-05-21T06:00:32;12.10;;;8.68;;
75272;SDS011;63869;52.344;16.928;2023-05-21T06:02:58;12.98;;;8.90;;
75272;SDS011;63869;52.344;16.928;2023-05-21T06:05:24;10.40;;;7.70;;
75272;SDS011;63869;52.344;16.928;2023-05-21T06:07:50;13.75;;;7.95;;
75272;SDS011;63869;52.344;16.928;2023-05-21T06:10:16;9.82;;;7.43;;
75272;SDS011;63869;52.344;16.928;2023-05-21T06:12:41;9.73;;;7.38;;
75272;SDS011;63869;52.344;16.928;2023-05-21T06:15:06;10.68;;;7.68;;
75272;SDS011;63869;52.344;16.928;2023-05-21T06:17:32;11.98;;;7.22;;
75272;SDS011;63869;52.344;16.928;2023-05-21T06:19:58;8.95;;;6.47;;
75272;SDS011;63869;52.344;16.928;2023-05-21T06:22:24;9.45;;;7.00;;
75272;SDS011;63869;52.344;16.928;2023-05-21T06:24:50;9.90;;;7.70;;
75272;SDS011;63869;52.344;16.928;2023-05-21T06:27:16;9.23;;;6.85;;
75272;SDS011;63869;52.344;16.928;2023-05-21T06:29:41;10.90;;;7.28;;
75272;SDS011;63869;52.344;16.928;2023-05-21T06:32:09;10.63;;;7.68;;
75272;SDS011;63869;52.344;16.928;2023-05-21T06:34:35;13.13;;;7.28;;
75272;SDS011;63869;52.344;16.928;2023-05-21T06:37:00;10.45;;;6.60;;
75272;SDS011;63869;52.344;16.928;2023-05-21T06:39:25;10.65;;;6.57;;
75272;SDS011;63869;52.344;16.928;2023-05-21T06:41:51;14.95;;;8.52;;
75272;SDS011;63869;52.344;16.928;2023-05-21T06:44:16;17.52;;;8.25;;
75272;SDS011;63869;52.344;16.928;2023-05-21T06:46:47;17.75;;;8.30;;
75272;SDS011;63869;52.344;16.928;2023-05-21T06:49:16;30.23;;;17.02;;
75272;SDS011;63869;52.344;16.928;2023-05-21T06:51:42;33.13;;;17.90;;
75272;SDS011;63869;52.344;16.928;2023-05-21T06:54:07;27.67;;;15.93;;
75272;SDS011;63869;52.344;16.928;2023-05-21T06:56:32;30.80;;;14.43;;
75272;SDS011;63869;52.344;16.928;2023-05-21T06:58:58;27.98;;;15.75;;
75272;SDS011;63869;52.344;16.928;2023-05-21T07:01:23;34.75;;;18.33;;
75272;SDS011;63869;52.344;16.928;2023-05-21T07:03:48;51.53;;;15.35;;
75272;SDS011;63869;52.344;16.928;2023-05-21T07:06:14;20.27;;;11.73;;
75272;SDS011;63869;52.344;16.928;2023-05-21T07:08:40;35.63;;;19.27;;
75272;SDS011;63869;52.344;16.928;2023-05-21T07:11:06;30.35;;;16.08;;
75272;SDS011;63869;52.344;16.928;2023-05-21T07:13:31;31.17;;;15.25;;
75272;SDS011;63869;52.344;16.928;2023-05-21T07:15:57;25.67;;;13.05;;
75272;SDS011;63869;52.344;16.928;2023-05-21T07:18:22;22.40;;;14.40;;
75272;SDS011;63869;52.344;16.928;2023-05-21T07:20:47;34.75;;;17.20;;
75272;SDS011;63869;52.344;16.928;2023-05-21T07:23:14;32.78;;;17.30;;
75272;SDS011;63869;52.344;16.928;2023-05-21T07:25:40;27.33;;;14.90;;
75272;SDS011;63869;52.344;16.928;2023-05-21T07:28:06;18.80;;;10.48;;
75272;SDS011;63869;52.344;16.928;2023-05-21T07:30:31;30.77;;;17.85;;
75272;SDS011;63869;52.344;16.928;2023-05-21T07:32:56;23.60;;;14.05;;
75272;SDS011;63869;52.344;16.928;2023-05-21T07:35:22;18.70;;;10.38;;
75272;SDS011;63869;52.344;16.928;2023-05-21T07:37:48;14.55;;;8.73;;
75272;SDS011;63869;52.344;16.928;2023-05-21T07:40:14;18.05;;;10.13;;
75272;SDS011;63869;52.344;16.928;2023-05-21T07:42:40;17.45;;;9.18;;
75272;SDS011;63869;52.344;16.928;2023-05-21T07:45:06;35.15;;;17.00;;
75272;SDS011;63869;52.344;16.928;2023-05-21T07:47:31;32.22;;;14.25;;
75272;SDS011;63869;52.344;16.928;2023-05-21T07:49:57;14.23;;;6.50;;
75272;SDS011;63869;52.344;16.928;2023-05-21T07:52:25;16.65;;;9.10;;
75272;SDS011;63869;52.344;16.928;2023-05-21T07:54:50;11.95;;;7.07;;
75272;SDS011;63869;52.344;16.928;2023-05-21T07:57:16;29.35;;;15.65;;
75272;SDS011;63869;52.344;16.928;2023-05-21T07:59:41;24.02;;;12.80;;
75272;SDS011;63869;52.344;16.928;2023-05-21T08:02:06;33.08;;;16.20;;
75272;SDS011;63869;52.344;16.928;2023-05-21T08:04:33;30.05;;;15.75;;
75272;SDS011;63869;52.344;16.928;2023-05-21T08:06:59;41.40;;;21.40;;
75272;SDS011;63869;52.344;16.928;2023-05-21T08:09:24;17.27;;;9.70;;
75272;SDS011;63869;52.344;16.928;2023-05-21T08:11:50;31.77;;;16.17;;
75272;SDS011;63869;52.344;16.928;2023-05-21T08:14:17;58.80;;;31.58;;
75272;SDS011;63869;52.344;16.928;2023-05-21T08:16:42;40.00;;;22.45;;
75272;SDS011;63869;52.344;16.928;2023-05-21T08:19:08;47.90;;;23.27;;
75272;SDS011;63869;52.344;16.928;2023-05-21T08:21:35;20.92;;;11.38;;
75272;SDS011;63869;52.344;16.928;2023-05-21T08:24:01;11.25;;;4.57;;
75272;SDS011;63869;52.344;16.928;2023-05-21T08:26:27;7.60;;;4.60;;
75272;SDS011;63869;52.344;16.928;2023-05-21T08:28:52;9.50;;;4.30;;
75272;SDS011;63869;52.344;16.928;2023-05-21T08:31:18;5.38;;;4.40;;
75272;SDS011;63869;52.344;16.928;2023-05-21T08:33:51;9.57;;;4.70;;
75272;SDS011;63869;52.344;16.928;2023-05-21T08:36:17;6.35;;;4.22;;
75272;SDS011;63869;52.344;16.928;2023-05-21T08:38:43;5.55;;;4.03;;
75272;SDS011;63869;52.344;16.928;2023-05-21T08:41:09;6.22;;;4.07;;
75272;SDS011;63869;52.344;16.928;2023-05-21T08:43:36;6.38;;;3.83;;
75272;SDS011;63869;52.344;16.928;2023-05-21T08:46:02;6.70;;;4.07;;
75272;SDS011;63869;52.344;16.928;2023-05-21T08:48:28;7.35;;;3.97;;
75272;SDS011;63869;52.344;16.928;2023-05-21T08:50:55;6.95;;;4.22;;
75272;SDS011;63869;52.344;16.928;2023-05-21T08:53:22;9.02;;;3.65;;
75272;SDS011;63869;52.344;16.928;2023-05-21T08:55:49;5.32;;;3.58;;
75272;SDS011;63869;52.344;16.928;2023-05-21T08:58:16;6.53;;;4.05;;
75272;SDS011;63869;52.344;16.928;2023-05-21T09:00:42;6.50;;;3.85;;
75272;SDS011;63869;52.344;16.928;2023-05-21T09:03:07;6.57;;;3.90;;
75272;SDS011;63869;52.344;16.928;2023-05-21T09:05:39;5.55;;;3.80;;
75272;SDS011;63869;52.344;16.928;2023-05-21T09:08:05;18.63;;;4.10;;
75272;SDS011;63869;52.344;16.928;2023-05-21T09:10:35;9.07;;;3.85;;
75272;SDS011;63869;52.344;16.928;2023-05-21T09:13:02;11.10;;;4.20;;
75272;SDS011;63869;52.344;16.928;2023-05-21T09:15:28;6.20;;;3.33;;
75272;SDS011;63869;52.344;16.928;2023-05-21T09:17:54;4.43;;;3.50;;
75272;SDS011;63869;52.344;16.928;2023-05-21T09:20:24;6.07;;;3.60;;
75272;SDS011;63869;52.344;16.928;2023-05-21T09:22:51;8.93;;;3.40;;
75272;SDS011;63869;52.344;16.928;2023-05-21T09:25:25;5.80;;;3.30;;
75272;SDS011;63869;52.344;16.928;2023-05-21T09:27:54;5.47;;;3.40;;
75272;SDS011;63869;52.344;16.928;2023-05-21T09:30:20;7.97;;;3.50;;
75272;SDS011;63869;52.344;16.928;2023-05-21T09:32:47;7.38;;;3.50;;
75272;SDS011;63869;52.344;16.928;2023-05-21T09:35:20;5.78;;;3.20;;
75272;SDS011;63869;52.344;16.928;2023-05-21T09:37:47;7.68;;;3.20;;
75272;SDS011;63869;52.344;16.928;2023-05-21T09:40:16;5.85;;;3.08;;
75272;SDS011;63869;52.344;16.928;2023-05-21T09:42:47;4.88;;;3.40;;
75272;SDS011;63869;52.344;16.928;2023-05-21T09:45:20;6.60;;;3.15;;
75272;SDS011;63869;52.344;16.928;2023-05-21T09:47:49;8.05;;;3.10;;
75272;SDS011;63869;52.344;16.928;2023-05-21T09:50:17;7.38;;;3.42;;
75272;SDS011;63869;52.344;16.928;2023-05-21T09:52:44;9.57;;;3.40;;
75272;SDS011;63869;52.344;16.928;2023-05-21T09:55:10;6.20;;;3.22;;
75272;SDS011;63869;52.344;16.928;2023-05-21T09:57:43;4.20;;;3.05;;
75272;SDS011;63869;52.344;16.928;2023-05-21T10:00:16;4.38;;;3.20;;
75272;SDS011;63869;52.344;16.928;2023-05-21T10:02:44;4.55;;;3.20;;
75272;SDS011;63869;52.344;16.928;2023-05-21T10:05:11;5.80;;;3.53;;
75272;SDS011;63869;52.344;16.928;2023-05-21T10:07:38;4.05;;;3.40;;
75272;SDS011;63869;52.344;16.928;2023-05-21T10:10:06;5.63;;;3.30;;
75272;SDS011;63869;52.344;16.928;2023-05-21T10:12:35;8.38;;;3.65;;
75272;SDS011;63869;52.344;16.928;2023-05-21T10:15:02;9.73;;;3.45;;
75272;SDS011;63869;52.344;16.928;2023-05-21T10:17:30;11.35;;;3.58;;
75272;SDS011;63869;52.344;16.928;2023-05-21T10:19:55;8.75;;;3.55;;
75272;SDS011;63869;52.344;16.928;2023-05-21T10:22:22;8.20;;;3.40;;
75272;SDS011;63869;52.344;16.928;2023-05-21T10:24:49;6.28;;;3.67;;
75272;SDS011;63869;52.344;16.928;2023-05-21T10:27:16;11.15;;;3.75;;
75272;SDS011;63869;52.344;16.928;2023-05-21T10:29:42;5.15;;;3.45;;
75272;SDS011;63869;52.344;16.928;2023-05-21T10:32:13;19.02;;;4.32;;
75272;SDS011;63869;52.344;16.928;2023-05-21T10:34:40;7.55;;;3.50;;
75272;SDS011;63869;52.344;16.928;2023-05-21T10:37:07;4.43;;;3.47;;
75272;SDS011;63869;52.344;16.928;2023-05-21T10:39:34;8.57;;;3.30;;
75272;SDS011;63869;52.344;16.928;2023-05-21T10:56:28;5.43;;;3.70;;
75272;SDS011;63869;52.344;16.928;2023-05-21T10:59:10;6.90;;;3.88;;
75272;SDS011;63869;52.344;16.928;2023-05-21T11:01:45;9.15;;;3.70;;
75272;SDS011;63869;52.344;16.928;2023-05-21T11:04:13;5.90;;;3.53;;
75272;SDS011;63869;52.344;16.928;2023-05-21T11:06:39;5.53;;;3.10;;
75272;SDS011;63869;52.344;16.928;2023-05-21T11:09:14;6.80;;;3.47;;
75272;SDS011;63869;52.344;16.928;2023-05-21T11:11:40;6.22;;;3.28;;
75272;SDS011;63869;52.344;16.928;2023-05-21T11:19:38;7.43;;;3.40;;
75272;SDS011;63869;52.344;16.928;2023-05-21T11:22:04;52.33;;;6.55;;
75272;SDS011;63869;52.344;16.928;2023-05-21T11:24:31;7.25;;;3.40;;
75272;SDS011;63869;52.344;16.928;2023-05-21T11:26:58;5.93;;;3.60;;
75272;SDS011;63869;52.344;16.928;2023-05-21T11:29:36;3.97;;;3.17;;
75272;SDS011;63869;52.344;16.928;2023-05-21T11:32:09;20.25;;;4.35;;
75272;SDS011;63869;52.344;16.928;2023-05-21T11:34:40;5.90;;;3.30;;
75272;SDS011;63869;52.344;16.928;2023-05-21T11:39:47;7.75;;;3.75;;
75272;SDS011;63869;52.344;16.928;2023-05-21T11:42:30;7.07;;;3.33;;
75272;SDS011;63869;52.344;16.928;2023-05-21T11:44:57;4.65;;;3.38;;
75272;SDS011;63869;52.344;16.928;2023-05-21T11:47:23;7.20;;;3.30;;
75272;SDS011;63869;52.344;16.928;2023-05-21T11:49:52;5.38;;;3.35;;
75272;SDS011;63869;52.344;16.928;2023-05-21T11:52:18;6.47;;;3.45;;
75272;SDS011;63869;52.344;16.928;2023-05-21T11:54:51;15.18;;;3.50;;
75272;SDS011;63869;52.344;16.928;2023-05-21T11:57:21;6.88;;;3.28;;
75272;SDS011;63869;52.344;16.928;2023-05-21T11:59:50;6.57;;;3.20;;
75272;SDS011;63869;52.344;16.928;2023-05-21T12:02:17;7.05;;;3.13;;
75272;SDS011;63869;52.344;16.928;2023-05-21T12:04:44;5.32;;;3.30;;
75272;SDS011;63869;52.344;16.928;2023-05-21T12:07:10;3.67;;;3.10;;
75272;SDS011;63869;52.344;16.928;2023-05-21T12:09:39;4.43;;;2.88;;
75272;SDS011;63869;52.344;16.928;2023-05-21T12:12:08;6.40;;;3.00;;
75272;SDS011;63869;52.344;16.928;2023-05-21T12:14:34;3.40;;;2.78;;
75272;SDS011;63869;52.344;16.928;2023-05-21T12:17:01;5.65;;;3.38;;
75272;SDS011;63869;52.344;16.928;2023-05-21T12:19:27;4.15;;;3.03;;
75272;SDS011;63869;52.344;16.928;2023-05-21T12:21:56;4.60;;;3.00;;
75272;SDS011;63869;52.344;16.928;2023-05-21T12:24:21;3.40;;;2.92;;
75272;SDS011;63869;52.344;16.928;2023-05-21T12:26:46;4.63;;;3.30;;
75272;SDS011;63869;52.344;16.928;2023-05-21T12:29:13;6.88;;;3.45;;
75272;SDS011;63869;52.344;16.928;2023-05-21T12:31:46;4.95;;;3.28;;
75272;SDS011;63869;52.344;16.928;2023-05-21T12:34:13;7.57;;;3.60;;
75272;SDS011;63869;52.344;16.928;2023-05-21T12:36:39;8.50;;;3.35;;
75272;SDS011;63869;52.344;16.928;2023-05-21T12:39:10;5.43;;;3.03;;
75272;SDS011;63869;52.344;16.928;2023-05-21T12:41:35;4.18;;;3.20;;
75272;SDS011;63869;52.344;16.928;2023-05-21T12:44:01;6.57;;;3.30;;
75272;SDS011;63869;52.344;16.928;2023-05-21T12:46:26;6.60;;;3.17;;
75272;SDS011;63869;52.344;16.928;2023-05-21T12:48:52;6.22;;;3.38;;
75272;SDS011;63869;52.344;16.928;2023-05-21T12:51:18;6.78;;;3.35;;
75272;SDS011;63869;52.344;16.928;2023-05-21T12:53:44;6.28;;;3.25;;
75272;SDS011;63869;52.344;16.928;2023-05-21T12:56:10;5.43;;;3.20;;
75272;SDS011;63869;52.344;16.928;2023-05-21T12:58:36;4.43;;;3.10;;
75272;SDS011;63869;52.344;16.928;2023-05-21T13:01:20;6.30;;;3.40;;
75272;SDS011;63869;52.344;16.928;2023-05-21T13:03:45;5.35;;;3.13;;
75272;SDS011;63869;52.344;16.928;2023-05-21T13:06:11;12.63;;;3.30;;
75272;SDS011;63869;52.344;16.928;2023-05-21T13:08:37;28.70;;;4.45;;
75272;SDS011;63869;52.344;16.928;2023-05-21T13:11:02;6.07;;;3.33;;
75272;SDS011;63869;52.344;16.928;2023-05-21T13:13:28;8.75;;;3.20;;
75272;SDS011;63869;52.344;16.928;2023-05-21T13:15:54;5.45;;;2.97;;
75272;SDS011;63869;52.344;16.928;2023-05-21T13:18:20;7.18;;;2.90;;
75272;SDS011;63869;52.344;16.928;2023-05-21T13:20:46;4.70;;;3.13;;
75272;SDS011;63869;52.344;16.928;2023-05-21T13:23:12;4.97;;;2.97;;
75272;SDS011;63869;52.344;16.928;2023-05-21T13:25:40;5.53;;;3.13;;
75272;SDS011;63869;52.344;16.928;2023-05-21T13:28:05;4.38;;;3.08;;
75272;SDS011;63869;52.344;16.928;2023-05-21T13:30:34;4.32;;;3.03;;
75272;SDS011;63869;52.344;16.928;2023-05-21T13:32:59;5.25;;;3.13;;
75272;SDS011;63869;52.344;16.928;2023-05-21T13:35:25;3.90;;;2.97;;
75272;SDS011;63869;52.344;16.928;2023-05-21T13:37:50;4.13;;;3.00;;
75272;SDS011;63869;52.344;16.928;2023-05-21T13:40:16;5.07;;;3.10;;
75272;SDS011;63869;52.344;16.928;2023-05-21T13:42:45;7.75;;;3.00;;
75272;SDS011;63869;52.344;16.928;2023-05-21T13:45:12;3.67;;;2.90;;
75272;SDS011;63869;52.344;16.928;2023-05-21T13:47:39;5.05;;;3.28;;
75272;SDS011;63869;52.344;16.928;2023-05-21T13:50:05;3.90;;;2.70;;
75272;SDS011;63869;52.344;16.928;2023-05-21T13:52:31;3.30;;;2.70;;
75272;SDS011;63869;52.344;16.928;2023-05-21T13:54:57;4.13;;;2.80;;
75272;SDS011;63869;52.344;16.928;2023-05-21T13:57:22;24.80;;;3.57;;
75272;SDS011;63869;52.344;16.928;2023-05-21T13:59:50;10.63;;;3.53;;
75272;SDS011;63869;52.344;16.928;2023-05-21T14:02:15;4.90;;;3.00;;
75272;SDS011;63869;52.344;16.928;2023-05-21T14:04:41;9.20;;;3.30;;
75272;SDS011;63869;52.344;16.928;2023-05-21T14:07:06;5.90;;;3.10;;
75272;SDS011;63869;52.344;16.928;2023-05-21T14:09:31;6.20;;;3.15;;
75272;SDS011;63869;52.344;16.928;2023-05-21T14:11:57;3.42;;;2.70;;
75272;SDS011;63869;52.344;16.928;2023-05-21T14:14:22;5.60;;;3.00;;
75272;SDS011;63869;52.344;16.928;2023-05-21T14:16:50;5.38;;;3.10;;
75272;SDS011;63869;52.344;16.928;2023-05-21T14:19:17;7.07;;;3.13;;
75272;SDS011;63869;52.344;16.928;2023-05-21T14:21:42;4.88;;;2.80;;
75272;SDS011;63869;52.344;16.928;2023-05-21T14:24:07;3.58;;;2.83;;
75272;SDS011;63869;52.344;16.928;2023-05-21T14:26:33;4.57;;;2.80;;
75272;SDS011;63869;52.344;16.928;2023-05-21T14:29:00;7.28;;;2.90;;
75272;SDS011;63869;52.344;16.928;2023-05-21T14:31:26;6.25;;;2.90;;
75272;SDS011;63869;52.344;16.928;2023-05-21T14:33:51;6.85;;;3.00;;
75272;SDS011;63869;52.344;16.928;2023-05-21T14:36:17;6.40;;;2.80;;
75272;SDS011;63869;52.344;16.928;2023-05-21T14:38:42;4.93;;;2.90;;
75272;SDS011;63869;52.344;16.928;2023-05-21T14:41:07;4.82;;;2.85;;
75272;SDS011;63869;52.344;16.928;2023-05-21T14:43:34;9.07;;;2.95;;